sensor_id;sensor_type;location;lat;lon;timestamp;pressure;altitude;pressure_sealevel;temperature;humidity
7768;BME280;3928;42.626;23.382;2023-02-13T00:01:11;95861.50;;;3.65;70.59
7768;BME280;3928;42.626;23.382;2023-02-13T00:03:38;95859.28;;;3.74;70.33
7768;BME280;3928;42.626;23.382;2023-02-13T00:06:05;95845.63;;;3.71;69.32
7768;BME280;3928;42.626;23.382;2023-02-13T00:08:32;95863.81;;;3.83;69.46
7768;BME280;3928;42.626;23.382;2023-02-13T00:10:59;95863.09;;;3.87;69.18
7768;BME280;3928;42.626;23.382;2023-02-13T00:13:27;95870.81;;;3.90;67.91
7768;BME280;3928;42.626;23.382;2023-02-13T00:15:55;95863.00;;;3.84;67.09
7768;BME280;3928;42.626;23.382;2023-02-13T00:18:24;95868.19;;;3.87;67.99
7768;BME280;3928;42.626;23.382;2023-02-13T00:21:02;95865.66;;;3.87;66.00
7768;BME280;3928;42.626;23.382;2023-02-13T00:23:31;95874.13;;;3.88;64.91
7768;BME280;3928;42.626;23.382;2023-02-13T00:25:59;95878.28;;;3.86;64.97
7768;BME280;3928;42.626;23.382;2023-02-13T00:28:27;95881.69;;;3.86;66.67
7768;BME280;3928;42.626;23.382;2023-02-13T00:31:03;95886.16;;;3.68;68.34
7768;BME280;3928;42.626;23.382;2023-02-13T00:33:30;95871.41;;;3.58;68.47
7768;BME280;3928;42.626;23.382;2023-02-13T00:36:02;95844.94;;;3.27;68.84
7768;BME280;3928;42.626;23.382;2023-02-13T00:38:29;95886.31;;;3.48;68.96
7768;BME280;3928;42.626;23.382;2023-02-13T00:40:56;95868.84;;;3.10;70.20
7768;BME280;3928;42.626;23.382;2023-02-13T00:43:23;95875.50;;;3.08;69.75
7768;BME280;3928;42.626;23.382;2023-02-13T00:45:51;95873.06;;;3.09;70.83
7768;BME280;3928;42.626;23.382;2023-02-13T00:48:18;95870.72;;;2.93;70.61
7768;BME280;3928;42.626;23.382;2023-02-13T00:50:45;95880.25;;;2.76;71.87
7768;BME280;3928;42.626;23.382;2023-02-13T00:53:12;95879.44;;;2.77;72.16
7768;BME280;3928;42.626;23.382;2023-02-13T00:55:38;95883.25;;;2.88;71.94
7768;BME280;3928;42.626;23.382;2023-02-13T00:58:05;95886.25;;;3.01;72.10
7768;BME280;3928;42.626;23.382;2023-02-13T01:00:32;95890.97;;;3.14;71.31
7768;BME280;3928;42.626;23.382;2023-02-13T01:03:00;95892.19;;;3.23;69.68
7768;BME280;3928;42.626;23.382;2023-02-13T01:05:27;95887.00;;;3.20;69.20
7768;BME280;3928;42.626;23.382;2023-02-13T01:07:54;95882.53;;;3.15;70.43
7768;BME280;3928;42.626;23.382;2023-02-13T01:10:20;95891.75;;;3.35;70.07
7768;BME280;3928;42.626;23.382;2023-02-13T01:12:47;95888.75;;;3.45;68.71
7768;BME280;3928;42.626;23.382;2023-02-13T01:15:14;95890.56;;;3.49;67.95
7768;BME280;3928;42.626;23.382;2023-02-13T01:17:41;95888.41;;;3.36;68.68
7768;BME280;3928;42.626;23.382;2023-02-13T01:20:11;95887.34;;;3.31;69.44
7768;BME280;3928;42.626;23.382;2023-02-13T01:22:39;95891.91;;;3.40;69.41
7768;BME280;3928;42.626;23.382;2023-02-13T01:25:09;95895.44;;;3.43;68.04
7768;BME280;3928;42.626;23.382;2023-02-13T01:27:36;95891.28;;;3.45;67.36
7768;BME280;3928;42.626;23.382;2023-02-13T01:30:04;95891.97;;;3.41;66.92
7768;BME280;3928;42.626;23.382;2023-02-13T01:32:34;95894.88;;;3.28;68.05
7768;BME280;3928;42.626;23.382;2023-02-13T01:35:01;95893.38;;;3.33;68.12
7768;BME280;3928;42.626;23.382;2023-02-13T01:37:29;95880.94;;;3.17;68.73
7768;BME280;3928;42.626;23.382;2023-02-13T01:39:56;95896.97;;;3.40;68.31
7768;BME280;3928;42.626;23.382;2023-02-13T01:42:25;95897.91;;;3.42;68.51
7768;BME280;3928;42.626;23.382;2023-02-13T01:44:54;95870.91;;;3.20;68.72
7768;BME280;3928;42.626;23.382;2023-02-13T01:47:26;95901.91;;;3.35;69.79
7768;BME280;3928;42.626;23.382;2023-02-13T01:50:01;95881.59;;;3.35;69.78
7768;BME280;3928;42.626;23.382;2023-02-13T01:52:32;95899.06;;;3.28;71.31
7768;BME280;3928;42.626;23.382;2023-02-13T01:54:59;95899.72;;;3.22;71.81
7768;BME280;3928;42.626;23.382;2023-02-13T01:57:27;95903.53;;;3.33;71.89
7768;BME280;3928;42.626;23.382;2023-02-13T01:59:59;95886.25;;;3.23;71.92
7768;BME280;3928;42.626;23.382;2023-02-13T02:02:30;95908.38;;;3.27;72.82
7768;BME280;3928;42.626;23.382;2023-02-13T02:05:00;95907.56;;;3.28;72.79
7768;BME280;3928;42.626;23.382;2023-02-13T02:07:28;95899.84;;;3.25;73.39
7768;BME280;3928;42.626;23.382;2023-02-13T02:09:59;95917.56;;;3.47;73.46
7768;BME280;3928;42.626;23.382;2023-02-13T02:12:32;95906.22;;;3.38;74.01
7768;BME280;3928;42.626;23.382;2023-02-13T02:15:03;95901.34;;;3.20;75.18
7768;BME280;3928;42.626;23.382;2023-02-13T02:17:30;95903.38;;;3.30;75.51
7768;BME280;3928;42.626;23.382;2023-02-13T02:20:06;95895.25;;;3.39;75.28
7768;BME280;3928;42.626;23.382;2023-02-13T02:23:03;95904.84;;;3.46;75.56
7768;BME280;3928;42.626;23.382;2023-02-13T02:29:05;95900.72;;;3.49;75.84
7768;BME280;3928;42.626;23.382;2023-02-13T02:34:50;95902.88;;;3.63;75.34
7768;BME280;3928;42.626;23.382;2023-02-13T02:37:46;95901.88;;;3.58;76.10
7768;BME280;3928;42.626;23.382;2023-02-13T02:40:23;95889.47;;;3.43;76.30
7768;BME280;3928;42.626;23.382;2023-02-13T02:42:59;95908.00;;;3.64;76.78
7768;BME280;3928;42.626;23.382;2023-02-13T02:45:37;95913.47;;;3.75;76.38
7768;BME280;3928;42.626;23.382;2023-02-13T02:48:09;95920.06;;;3.70;76.39
7768;BME280;3928;42.626;23.382;2023-02-13T02:51:01;95915.00;;;3.70;76.33
7768;BME280;3928;42.626;23.382;2023-02-13T02:53:34;95921.47;;;3.86;76.52
7768;BME280;3928;42.626;23.382;2023-02-13T02:56:10;95932.81;;;3.95;75.78
7768;BME280;3928;42.626;23.382;2023-02-13T02:58:42;95914.50;;;4.04;75.24
7768;BME280;3928;42.626;23.382;2023-02-13T03:01:29;95916.44;;;4.13;75.00
7768;BME280;3928;42.626;23.382;2023-02-13T03:04:18;95931.94;;;4.19;74.50
7768;BME280;3928;42.626;23.382;2023-02-13T03:07:06;95936.59;;;3.83;76.28
7768;BME280;3928;42.626;23.382;2023-02-13T03:09:36;95925.91;;;3.67;77.50
7768;BME280;3928;42.626;23.382;2023-02-13T03:12:24;95923.97;;;3.84;76.69
7768;BME280;3928;42.626;23.382;2023-02-13T03:15:13;95924.06;;;3.87;76.96
7768;BME280;3928;42.626;23.382;2023-02-13T03:17:40;95912.22;;;3.64;78.17
7768;BME280;3928;42.626;23.382;2023-02-13T03:20:32;95926.88;;;3.71;77.68
7768;BME280;3928;42.626;23.382;2023-02-13T03:23:24;95924.25;;;3.68;78.45
7768;BME280;3928;42.626;23.382;2023-02-13T03:26:20;95926.97;;;3.50;79.09
7768;BME280;3928;42.626;23.382;2023-02-13T03:29:04;95922.56;;;3.44;79.20
7768;BME280;3928;42.626;23.382;2023-02-13T03:31:59;95929.56;;;3.51;79.06
7768;BME280;3928;42.626;23.382;2023-02-13T03:34:31;95931.25;;;3.29;79.59
7768;BME280;3928;42.626;23.382;2023-02-13T03:37:26;95934.09;;;3.36;79.98
7768;BME280;3928;42.626;23.382;2023-02-13T03:40:16;95940.53;;;3.50;79.29
7768;BME280;3928;42.626;23.382;2023-02-13T03:42:52;95935.44;;;3.50;79.76
7768;BME280;3928;42.626;23.382;2023-02-13T03:45:21;95942.13;;;3.71;78.75
7768;BME280;3928;42.626;23.382;2023-02-13T03:48:09;95928.63;;;3.49;78.81
7768;BME280;3928;42.626;23.382;2023-02-13T03:50:58;95925.22;;;3.25;80.02
7768;BME280;3928;42.626;23.382;2023-02-13T03:53:26;95933.03;;;3.31;80.05
7768;BME280;3928;42.626;23.382;2023-02-13T03:55:56;95930.63;;;3.34;80.04
7768;BME280;3928;42.626;23.382;2023-02-13T03:58:45;95926.13;;;3.27;80.14
7768;BME280;3928;42.626;23.382;2023-02-13T04:01:31;95917.88;;;3.33;80.07
7768;BME280;3928;42.626;23.382;2023-02-13T04:04:06;95930.72;;;3.37;79.54
7768;BME280;3928;42.626;23.382;2023-02-13T04:06:37;95924.28;;;3.45;78.78
7768;BME280;3928;42.626;23.382;2023-02-13T04:09:07;95920.13;;;3.25;78.94
7768;BME280;3928;42.626;23.382;2023-02-13T04:11:39;95931.91;;;3.23;78.45
7768;BME280;3928;42.626;23.382;2023-02-13T04:14:12;95923.38;;;3.21;78.19
7768;BME280;3928;42.626;23.382;2023-02-13T04:16:43;95931.00;;;3.21;78.01
7768;BME280;3928;42.626;23.382;2023-02-13T04:19:11;95933.38;;;3.40;76.99
7768;BME280;3928;42.626;23.382;2023-02-13T04:21:39;95941.13;;;3.43;77.09
7768;BME280;3928;42.626;23.382;2023-02-13T04:24:06;95919.81;;;3.40;77.14
7768;BME280;3928;42.626;23.382;2023-02-13T04:26:37;95926.38;;;3.11;77.43
7768;BME280;3928;42.626;23.382;2023-02-13T04:29:05;95925.25;;;3.04;76.77
7768;BME280;3928;42.626;23.382;2023-02-13T04:31:31;95938.81;;;3.27;76.02
7768;BME280;3928;42.626;23.382;2023-02-13T04:33:58;95937.44;;;3.35;75.79
7768;BME280;3928;42.626;23.382;2023-02-13T04:36:25;95938.59;;;3.21;75.73
7768;BME280;3928;42.626;23.382;2023-02-13T04:38:52;95937.09;;;3.26;75.73
7768;BME280;3928;42.626;23.382;2023-02-13T04:41:19;95930.44;;;3.30;75.89
7768;BME280;3928;42.626;23.382;2023-02-13T04:43:47;95923.47;;;3.24;76.41
7768;BME280;3928;42.626;23.382;2023-02-13T04:46:17;95924.63;;;3.32;76.06
7768;BME280;3928;42.626;23.382;2023-02-13T04:48:43;95921.66;;;3.20;77.24
7768;BME280;3928;42.626;23.382;2023-02-13T04:51:10;95918.69;;;3.32;76.70
7768;BME280;3928;42.626;23.382;2023-02-13T04:53:37;95909.19;;;3.26;75.87
7768;BME280;3928;42.626;23.382;2023-02-13T04:56:04;95932.34;;;3.35;76.00
7768;BME280;3928;42.626;23.382;2023-02-13T04:58:31;95942.50;;;3.35;75.93
7768;BME280;3928;42.626;23.382;2023-02-13T05:00:59;95949.31;;;3.36;76.13
7768;BME280;3928;42.626;23.382;2023-02-13T05:03:26;95935.91;;;3.40;75.10
7768;BME280;3928;42.626;23.382;2023-02-13T05:05:53;95948.84;;;3.46;75.36
7768;BME280;3928;42.626;23.382;2023-02-13T05:08:20;95955.91;;;3.55;74.69
7768;BME280;3928;42.626;23.382;2023-02-13T05:10:47;95953.88;;;3.45;75.58
7768;BME280;3928;42.626;23.382;2023-02-13T05:13:14;95954.19;;;3.54;75.59
7768;BME280;3928;42.626;23.382;2023-02-13T05:15:41;95957.09;;;3.65;74.55
7768;BME280;3928;42.626;23.382;2023-02-13T05:18:09;95954.34;;;3.81;74.34
7768;BME280;3928;42.626;23.382;2023-02-13T05:20:35;95959.84;;;3.93;73.91
7768;BME280;3928;42.626;23.382;2023-02-13T05:23:02;95949.06;;;4.00;72.76
7768;BME280;3928;42.626;23.382;2023-02-13T05:25:46;95957.09;;;4.13;71.21
7768;BME280;3928;42.626;23.382;2023-02-13T05:28:13;95954.56;;;4.13;69.51
7768;BME280;3928;42.626;23.382;2023-02-13T05:30:54;95962.41;;;4.19;68.89
7768;BME280;3928;42.626;23.382;2023-02-13T05:33:23;95960.78;;;4.21;69.03
7768;BME280;3928;42.626;23.382;2023-02-13T05:35:50;95957.53;;;4.25;68.23
7768;BME280;3928;42.626;23.382;2023-02-13T05:38:17;95961.09;;;4.30;68.18
7768;BME280;3928;42.626;23.382;2023-02-13T05:40:43;95966.19;;;4.30;70.69
7768;BME280;3928;42.626;23.382;2023-02-13T05:43:12;95967.00;;;4.54;69.98
7768;BME280;3928;42.626;23.382;2023-02-13T05:45:38;95967.56;;;4.46;66.21
7768;BME280;3928;42.626;23.382;2023-02-13T05:48:05;95970.81;;;4.42;65.41
7768;BME280;3928;42.626;23.382;2023-02-13T05:50:33;95975.50;;;4.29;64.94
7768;BME280;3928;42.626;23.382;2023-02-13T05:53:00;95972.03;;;4.27;65.70
7768;BME280;3928;42.626;23.382;2023-02-13T05:55:27;95953.56;;;4.07;65.14
7768;BME280;3928;42.626;23.382;2023-02-13T05:57:55;95948.47;;;4.07;64.76
7768;BME280;3928;42.626;23.382;2023-02-13T06:00:22;95978.66;;;4.24;65.17
7768;BME280;3928;42.626;23.382;2023-02-13T06:02:49;95981.34;;;4.27;65.22
7768;BME280;3928;42.626;23.382;2023-02-13T06:05:16;95984.38;;;4.17;65.66
7768;BME280;3928;42.626;23.382;2023-02-13T06:07:44;95983.69;;;4.22;66.30
7768;BME280;3928;42.626;23.382;2023-02-13T06:10:11;95991.50;;;4.27;65.75
7768;BME280;3928;42.626;23.382;2023-02-13T06:12:38;95763.28;;;2.89;65.94
7768;BME280;3928;42.626;23.382;2023-02-13T06:15:06;95987.72;;;4.16;66.69
7768;BME280;3928;42.626;23.382;2023-02-13T06:17:33;95990.81;;;4.07;66.85
7768;BME280;3928;42.626;23.382;2023-02-13T06:19:59;95993.41;;;4.08;67.28
7768;BME280;3928;42.626;23.382;2023-02-13T06:22:26;95988.47;;;4.13;66.60
7768;BME280;3928;42.626;23.382;2023-02-13T06:24:54;95993.00;;;4.22;67.47
7768;BME280;3928;42.626;23.382;2023-02-13T06:27:21;95994.09;;;4.28;66.53
7768;BME280;3928;42.626;23.382;2023-02-13T06:29:48;95995.97;;;4.34;66.94
7768;BME280;3928;42.626;23.382;2023-02-13T06:32:15;95997.09;;;4.42;66.68
7768;BME280;3928;42.626;23.382;2023-02-13T06:34:41;96002.19;;;4.42;65.14
7768;BME280;3928;42.626;23.382;2023-02-13T06:37:09;96004.31;;;4.55;70.74
7768;BME280;3928;42.626;23.382;2023-02-13T06:39:36;96003.06;;;4.95;75.23
7768;BME280;3928;42.626;23.382;2023-02-13T06:42:04;95992.44;;;5.34;73.54
7768;BME280;3928;42.626;23.382;2023-02-13T06:44:31;96002.03;;;5.44;62.18
7768;BME280;3928;42.626;23.382;2023-02-13T06:46:58;95998.59;;;5.42;61.08
7768;BME280;3928;42.626;23.382;2023-02-13T06:49:25;96005.41;;;5.43;61.62
7768;BME280;3928;42.626;23.382;2023-02-13T06:51:51;96003.69;;;5.42;61.94
7768;BME280;3928;42.626;23.382;2023-02-13T06:54:18;95995.16;;;5.40;61.70
7768;BME280;3928;42.626;23.382;2023-02-13T06:56:45;96006.38;;;5.46;62.39
7768;BME280;3928;42.626;23.382;2023-02-13T06:59:13;95998.75;;;5.46;62.30
7768;BME280;3928;42.626;23.382;2023-02-13T07:01:40;95998.84;;;5.49;61.03
7768;BME280;3928;42.626;23.382;2023-02-13T07:04:07;96001.28;;;5.46;60.76
7768;BME280;3928;42.626;23.382;2023-02-13T07:06:33;96000.53;;;5.49;61.35
7768;BME280;3928;42.626;23.382;2023-02-13T07:09:00;95997.19;;;5.51;61.29
7768;BME280;3928;42.626;23.382;2023-02-13T07:11:27;95992.22;;;5.56;61.59
7768;BME280;3928;42.626;23.382;2023-02-13T07:13:54;95995.75;;;5.60;60.45
7768;BME280;3928;42.626;23.382;2023-02-13T07:16:22;95992.41;;;5.62;61.11
7768;BME280;3928;42.626;23.382;2023-02-13T07:18:49;96000.88;;;5.61;60.06
7768;BME280;3928;42.626;23.382;2023-02-13T07:21:16;95995.00;;;5.64;60.34
7768;BME280;3928;42.626;23.382;2023-02-13T07:23:43;95982.84;;;5.55;60.45
7768;BME280;3928;42.626;23.382;2023-02-13T07:26:09;96008.88;;;5.73;59.17
7768;BME280;3928;42.626;23.382;2023-02-13T07:28:36;96013.16;;;5.74;59.74
7768;BME280;3928;42.626;23.382;2023-02-13T07:31:03;96009.63;;;5.69;59.08
7768;BME280;3928;42.626;23.382;2023-02-13T07:33:32;96005.84;;;5.56;58.86
7768;BME280;3928;42.626;23.382;2023-02-13T07:35:59;96009.41;;;5.63;59.63
7768;BME280;3928;42.626;23.382;2023-02-13T07:38:28;96006.13;;;5.67;59.73
7768;BME280;3928;42.626;23.382;2023-02-13T07:40:57;96007.16;;;5.72;58.99
7768;BME280;3928;42.626;23.382;2023-02-13T07:43:24;96007.94;;;5.70;58.47
7768;BME280;3928;42.626;23.382;2023-02-13T07:45:51;96000.59;;;5.52;59.80
7768;BME280;3928;42.626;23.382;2023-02-13T07:48:20;96010.94;;;5.56;60.56
7768;BME280;3928;42.626;23.382;2023-02-13T07:50:48;96013.63;;;5.61;60.47
7768;BME280;3928;42.626;23.382;2023-02-13T07:53:15;95998.34;;;5.61;59.89
7768;BME280;3928;42.626;23.382;2023-02-13T07:55:42;95988.38;;;5.69;60.96
7768;BME280;3928;42.626;23.382;2023-02-13T07:58:09;96006.88;;;5.92;60.46
7768;BME280;3928;42.626;23.382;2023-02-13T08:00:36;95993.50;;;5.99;60.88
7768;BME280;3928;42.626;23.382;2023-02-13T08:03:03;96000.66;;;6.12;61.38
7768;BME280;3928;42.626;23.382;2023-02-13T08:05:31;96005.22;;;6.24;61.49
7768;BME280;3928;42.626;23.382;2023-02-13T08:08:00;96003.63;;;6.27;60.96
7768;BME280;3928;42.626;23.382;2023-02-13T08:10:27;96000.66;;;6.12;61.39
7768;BME280;3928;42.626;23.382;2023-02-13T08:13:12;96009.06;;;6.08;62.39
7768;BME280;3928;42.626;23.382;2023-02-13T08:15:40;95998.78;;;6.05;62.73
7768;BME280;3928;42.626;23.382;2023-02-13T08:18:08;95999.59;;;6.04;62.61
7768;BME280;3928;42.626;23.382;2023-02-13T08:20:35;96005.94;;;6.18;62.30
7768;BME280;3928;42.626;23.382;2023-02-13T08:23:04;96006.16;;;6.27;62.20
7768;BME280;3928;42.626;23.382;2023-02-13T08:25:32;95999.44;;;6.29;62.51
7768;BME280;3928;42.626;23.382;2023-02-13T08:27:59;95896.03;;;5.77;62.23
7768;BME280;3928;42.626;23.382;2023-02-13T08:30:27;96000.63;;;6.42;61.86
7768;BME280;3928;42.626;23.382;2023-02-13T08:32:54;95993.03;;;6.43;61.22
7768;BME280;3928;42.626;23.382;2023-02-13T08:35:21;96006.13;;;5.94;62.74
7768;BME280;3928;42.626;23.382;2023-02-13T08:37:51;96007.25;;;6.04;63.15
7768;BME280;3928;42.626;23.382;2023-02-13T08:40:19;95989.59;;;5.81;63.68
7768;BME280;3928;42.626;23.382;2023-02-13T08:42:46;96003.31;;;5.86;62.94
7768;BME280;3928;42.626;23.382;2023-02-13T08:45:12;96004.06;;;5.82;64.45
7768;BME280;3928;42.626;23.382;2023-02-13T08:47:39;95841.34;;;5.03;63.76
7768;BME280;3928;42.626;23.382;2023-02-13T08:50:07;96001.59;;;6.15;63.30
7768;BME280;3928;42.626;23.382;2023-02-13T08:52:34;96012.91;;;6.25;61.42
7768;BME280;3928;42.626;23.382;2023-02-13T08:55:01;95998.44;;;6.24;61.57
7768;BME280;3928;42.626;23.382;2023-02-13T08:57:29;96008.00;;;6.31;61.88
7768;BME280;3928;42.626;23.382;2023-02-13T08:59:56;95983.63;;;6.11;62.92
7768;BME280;3928;42.626;23.382;2023-02-13T09:02:23;96007.91;;;6.28;62.70
7768;BME280;3928;42.626;23.382;2023-02-13T09:04:50;96009.38;;;6.20;62.39
7768;BME280;3928;42.626;23.382;2023-02-13T09:07:17;96005.63;;;6.39;62.14
7768;BME280;3928;42.626;23.382;2023-02-13T09:09:44;96001.88;;;6.58;61.35
7768;BME280;3928;42.626;23.382;2023-02-13T09:12:10;95988.19;;;6.54;61.06
7768;BME280;3928;42.626;23.382;2023-02-13T09:14:39;96003.06;;;6.70;61.30
7768;BME280;3928;42.626;23.382;2023-02-13T09:17:06;95998.34;;;6.86;60.44
7768;BME280;3928;42.626;23.382;2023-02-13T09:19:33;96004.69;;;7.01;60.28
7768;BME280;3928;42.626;23.382;2023-02-13T09:21:59;95998.16;;;7.13;60.62
7768;BME280;3928;42.626;23.382;2023-02-13T09:24:26;95996.78;;;7.27;59.49
7768;BME280;3928;42.626;23.382;2023-02-13T09:26:53;95988.44;;;7.34;58.87
7768;BME280;3928;42.626;23.382;2023-02-13T09:29:22;95988.28;;;6.92;58.41
7768;BME280;3928;42.626;23.382;2023-02-13T09:31:50;95991.19;;;6.72;60.27
7768;BME280;3928;42.626;23.382;2023-02-13T09:34:17;95991.84;;;6.98;59.37
7768;BME280;3928;42.626;23.382;2023-02-13T09:36:44;95984.56;;;7.14;58.25
7768;BME280;3928;42.626;23.382;2023-02-13T09:39:10;95980.19;;;7.10;58.34
7768;BME280;3928;42.626;23.382;2023-02-13T09:41:39;95976.06;;;7.15;58.19
7768;BME280;3928;42.626;23.382;2023-02-13T09:44:13;95954.25;;;7.29;58.46
7768;BME280;3928;42.626;23.382;2023-02-13T09:47:01;95973.19;;;7.78;57.62
7768;BME280;3928;42.626;23.382;2023-02-13T09:49:32;95954.03;;;7.98;55.92
7768;BME280;3928;42.626;23.382;2023-02-13T09:52:01;95976.00;;;8.34;54.44
7768;BME280;3928;42.626;23.382;2023-02-13T09:54:28;95925.69;;;8.33;53.48
7768;BME280;3928;42.626;23.382;2023-02-13T09:56:58;95961.78;;;8.46;53.12
7768;BME280;3928;42.626;23.382;2023-02-13T09:59:40;95958.78;;;8.70;53.63
7768;BME280;3928;42.626;23.382;2023-02-13T10:02:31;95955.91;;;9.02;52.44
7768;BME280;3928;42.626;23.382;2023-02-13T10:05:07;95951.84;;;9.16;51.07
7768;BME280;3928;42.626;23.382;2023-02-13T10:07:39;95953.34;;;8.52;51.22
7768;BME280;3928;42.626;23.382;2023-02-13T10:10:18;95956.28;;;8.75;50.76
7768;BME280;3928;42.626;23.382;2023-02-13T10:13:10;95949.06;;;9.01;50.33
7768;BME280;3928;42.626;23.382;2023-02-13T10:15:46;95941.31;;;9.57;48.89
7768;BME280;3928;42.626;23.382;2023-02-13T10:18:17;95944.09;;;9.72;48.31
7768;BME280;3928;42.626;23.382;2023-02-13T10:20:47;95933.19;;;9.88;48.57
7768;BME280;3928;42.626;23.382;2023-02-13T10:23:21;95933.75;;;10.37;47.35
7768;BME280;3928;42.626;23.382;2023-02-13T10:25:54;95926.50;;;10.89;46.18
7768;BME280;3928;42.626;23.382;2023-02-13T10:28:29;95924.47;;;10.50;45.50
7768;BME280;3928;42.626;23.382;2023-02-13T10:31:02;95896.13;;;10.39;45.88
7768;BME280;3928;42.626;23.382;2023-02-13T10:33:34;95917.03;;;10.77;45.51
7768;BME280;3928;42.626;23.382;2023-02-13T10:36:08;95898.38;;;11.01;44.74
7768;BME280;3928;42.626;23.382;2023-02-13T10:38:43;95914.19;;;11.65;43.11
7768;BME280;3928;42.626;23.382;2023-02-13T10:41:24;95898.09;;;12.11;42.62
7768;BME280;3928;42.626;23.382;2023-02-13T10:44:11;95891.31;;;12.65;41.03
7768;BME280;3928;42.626;23.382;2023-02-13T10:46:49;95887.06;;;12.70;40.41
7768;BME280;3928;42.626;23.382;2023-02-13T10:49:35;95890.47;;;12.98;40.19
7768;BME280;3928;42.626;23.382;2023-02-13T10:52:09;95884.44;;;13.09;39.61
7768;BME280;3928;42.626;23.382;2023-02-13T10:55:03;95874.13;;;13.38;38.62
7768;BME280;3928;42.626;23.382;2023-02-13T10:57:39;95874.84;;;13.82;38.07
7768;BME280;3928;42.626;23.382;2023-02-13T11:00:17;95874.66;;;14.23;37.57
7768;BME280;3928;42.626;23.382;2023-02-13T11:02:44;95876.16;;;14.62;36.58
7768;BME280;3928;42.626;23.382;2023-02-13T11:05:17;95873.25;;;15.00;35.85
7768;BME280;3928;42.626;23.382;2023-02-13T11:07:46;95871.56;;;14.98;34.78
7768;BME280;3928;42.626;23.382;2023-02-13T11:10:16;95831.09;;;14.90;34.76
7768;BME280;3928;42.626;23.382;2023-02-13T11:12:44;95864.66;;;14.98;35.87
7768;BME280;3928;42.626;23.382;2023-02-13T11:15:21;95861.81;;;15.26;34.75
7768;BME280;3928;42.626;23.382;2023-02-13T11:17:48;95851.56;;;15.18;34.68
7768;BME280;3928;42.626;23.382;2023-02-13T11:20:30;95846.78;;;14.74;34.44
7768;BME280;3928;42.626;23.382;2023-02-13T11:23:23;95848.50;;;14.72;35.16
7768;BME280;3928;42.626;23.382;2023-02-13T11:25:56;95836.06;;;15.16;34.73
7768;BME280;3928;42.626;23.382;2023-02-13T11:28:23;95833.88;;;15.58;33.83
7768;BME280;3928;42.626;23.382;2023-02-13T11:30:50;95822.19;;;15.99;33.39
7768;BME280;3928;42.626;23.382;2023-02-13T11:33:22;95819.94;;;16.33;33.25
7768;BME280;3928;42.626;23.382;2023-02-13T11:36:04;95819.50;;;16.63;32.50
7768;BME280;3928;42.626;23.382;2023-02-13T11:38:31;95809.44;;;16.98;31.74
7768;BME280;3928;42.626;23.382;2023-02-13T11:41:05;95806.56;;;17.13;31.08
7768;BME280;3928;42.626;23.382;2023-02-13T11:43:34;95802.34;;;15.96;32.06
7768;BME280;3928;42.626;23.382;2023-02-13T11:46:05;95796.78;;;15.58;32.95
7768;BME280;3928;42.626;23.382;2023-02-13T11:48:33;95788.81;;;15.77;33.40
7768;BME280;3928;42.626;23.382;2023-02-13T11:51:03;95790.72;;;16.25;32.84
7768;BME280;3928;42.626;23.382;2023-02-13T11:53:34;95781.25;;;16.78;31.87
7768;BME280;3928;42.626;23.382;2023-02-13T11:56:09;95771.69;;;17.29;31.16
7768;BME280;3928;42.626;23.382;2023-02-13T11:58:37;95774.22;;;17.77;30.62
7768;BME280;3928;42.626;23.382;2023-02-13T12:04:04;95768.75;;;18.28;29.14
7768;BME280;3928;42.626;23.382;2023-02-13T12:06:34;95765.66;;;18.10;28.59
7768;BME280;3928;42.626;23.382;2023-02-13T12:09:10;95754.78;;;18.32;28.95
7768;BME280;3928;42.626;23.382;2023-02-13T12:11:41;95750.50;;;18.66;28.24
7768;BME280;3928;42.626;23.382;2023-02-13T12:14:12;95752.28;;;18.98;27.41
7768;BME280;3928;42.626;23.382;2023-02-13T12:16:43;95753.84;;;19.37;27.05
7768;BME280;3928;42.626;23.382;2023-02-13T12:19:15;95741.72;;;19.68;26.75
7768;BME280;3928;42.626;23.382;2023-02-13T12:22:04;95742.41;;;20.03;26.21
7768;BME280;3928;42.626;23.382;2023-02-13T12:24:45;95742.13;;;20.40;26.31
7768;BME280;3928;42.626;23.382;2023-02-13T12:27:22;95733.34;;;20.69;25.19
7768;BME280;3928;42.626;23.382;2023-02-13T12:30:08;95740.69;;;20.58;25.16
7768;BME280;3928;42.626;23.382;2023-02-13T12:32:48;95741.69;;;20.80;24.99
7768;BME280;3928;42.626;23.382;2023-02-13T12:35:30;95735.97;;;20.69;24.68
7768;BME280;3928;42.626;23.382;2023-02-13T12:38:08;95728.44;;;20.60;24.63
7768;BME280;3928;42.626;23.382;2023-02-13T12:41:00;95727.22;;;20.70;24.42
7768;BME280;3928;42.626;23.382;2023-02-13T12:46:39;95699.19;;;21.26;23.85
7768;BME280;3928;42.626;23.382;2023-02-13T12:49:21;95702.06;;;21.67;23.02
7768;BME280;3928;42.626;23.382;2023-02-13T12:52:04;95711.34;;;21.74;22.99
7768;BME280;3928;42.626;23.382;2023-02-13T12:54:48;95710.38;;;21.30;23.25
7768;BME280;3928;42.626;23.382;2023-02-13T12:57:37;95703.91;;;21.15;23.34
7768;BME280;3928;42.626;23.382;2023-02-13T13:00:21;95704.16;;;21.34;23.28
7768;BME280;3928;42.626;23.382;2023-02-13T13:03:27;95703.47;;;21.52;23.20
7768;BME280;3928;42.626;23.382;2023-02-13T13:06:09;95697.78;;;21.65;23.04
7768;BME280;3928;42.626;23.382;2023-02-13T13:08:50;95699.13;;;21.75;22.99
7768;BME280;3928;42.626;23.382;2023-02-13T13:11:36;95694.72;;;21.99;22.94
7768;BME280;3928;42.626;23.382;2023-02-13T13:14:13;95694.16;;;22.36;22.23
7768;BME280;3928;42.626;23.382;2023-02-13T13:16:47;95688.09;;;22.56;21.92
7768;BME280;3928;42.626;23.382;2023-02-13T13:19:23;95682.63;;;22.62;21.57
7768;BME280;3928;42.626;23.382;2023-02-13T13:21:57;95680.84;;;22.83;21.52
7768;BME280;3928;42.626;23.382;2023-02-13T13:24:36;95681.56;;;22.88;21.61
7768;BME280;3928;42.626;23.382;2023-02-13T13:27:16;95687.38;;;22.94;21.42
7768;BME280;3928;42.626;23.382;2023-02-13T13:29:49;95681.41;;;22.28;22.05
7768;BME280;3928;42.626;23.382;2023-02-13T13:32:18;95672.84;;;22.01;22.30
7768;BME280;3928;42.626;23.382;2023-02-13T13:34:46;95684.38;;;22.19;22.34
7768;BME280;3928;42.626;23.382;2023-02-13T13:37:19;95668.19;;;22.31;21.54
7768;BME280;3928;42.626;23.382;2023-02-13T13:39:54;95680.69;;;22.45;21.63
7768;BME280;3928;42.626;23.382;2023-02-13T13:42:30;95663.84;;;22.52;21.60
7768;BME280;3928;42.626;23.382;2023-02-13T13:45:22;95672.53;;;22.73;21.41
7768;BME280;3928;42.626;23.382;2023-02-13T13:48:07;95668.56;;;22.85;21.29
7768;BME280;3928;42.626;23.382;2023-02-13T13:50:43;95632.00;;;22.83;21.08
7768;BME280;3928;42.626;23.382;2023-02-13T13:53:12;95653.13;;;22.79;21.39
7768;BME280;3928;42.626;23.382;2023-02-13T13:58:42;95671.84;;;21.60;22.25
7768;BME280;3928;42.626;23.382;2023-02-13T14:03:54;95663.94;;;21.38;22.71